createdAt,value
2017-11-12T00:00:39.522Z,49.01
2017-11-12T00:01:39.533Z,50.58
2017-11-12T00:02:39.500Z,47.92
2017-11-12T00:03:39.491Z,44.82
2017-11-12T00:04:39.479Z,44.44
2017-11-12T00:05:40.313Z,47.66
2017-11-12T00:06:39.456Z,43.36
2017-11-12T00:07:40.324Z,42.29
2017-11-12T00:08:39.421Z,52.12
2017-11-12T00:09:39.415Z,47.21
2017-11-12T00:10:39.405Z,47.17
2017-11-12T00:11:39.398Z,44.15
2017-11-12T00:12:40.320Z,42.26
2017-11-12T00:13:39.387Z,40.66
2017-11-12T00:14:39.385Z,45.00
2017-11-12T00:15:39.354Z,44.26
2017-11-12T00:16:39.376Z,46.53
2017-11-12T00:17:39.336Z,45.94
2017-11-12T00:18:39.332Z,50.13
2017-11-12T00:19:39.333Z,49.35
2017-11-12T00:20:39.310Z,45.10
2017-11-12T00:21:39.291Z,43.69
2017-11-12T00:22:39.284Z,48.62
2017-11-12T00:23:39.273Z,47.43
2017-11-12T00:24:39.263Z,46.69
2017-11-12T00:25:39.251Z,42.57
2017-11-12T00:26:39.237Z,47.99
2017-11-12T00:27:39.226Z,49.71
2017-11-12T00:28:39.216Z,45.30
2017-11-12T00:29:39.211Z,50.29
2017-11-12T00:30:39.202Z,47.84
2017-11-12T00:31:39.185Z,48.22
2017-11-12T00:32:39.184Z,50.11
2017-11-12T00:33:39.161Z,53.24
2017-11-12T00:34:39.156Z,50.00
2017-11-12T00:35:39.153Z,54.42
2017-11-12T00:36:39.139Z,55.38
2017-11-12T00:37:39.118Z,54.54
2017-11-12T00:38:39.109Z,58.70
2017-11-12T00:39:39.098Z,60.42
2017-11-12T00:40:39.088Z,61.67
2017-11-12T00:41:39.074Z,55.89
2017-11-12T00:42:39.070Z,61.41
2017-11-12T00:43:39.058Z,58.79
2017-11-12T00:44:39.044Z,65.62
2017-11-12T00:45:39.036Z,67.92
2017-11-12T00:46:39.027Z,51.65
2017-11-12T00:47:39.009Z,53.73
2017-11-12T00:48:39.000Z,56.89
2017-11-12T00:49:38.998Z,53.42
2017-11-12T00:50:39.000Z,49.30
2017-11-12T00:51:38.964Z,48.34
2017-11-12T00:52:38.955Z,45.98
2017-11-12T00:53:38.957Z,52.01
2017-11-12T00:54:38.941Z,49.18
2017-11-12T00:55:38.918Z,48.31
2017-11-12T00:56:38.926Z,48.15
2017-11-12T00:57:38.903Z,52.11
2017-11-12T00:58:38.893Z,51.04
2017-11-12T00:59:38.874Z,48.42
2017-11-12T01:00:38.882Z,50.24
2017-11-12T01:01:38.856Z,51.48
2017-11-12T01:02:38.858Z,45.71
2017-11-12T01:03:38.830Z,50.98
2017-11-12T01:04:38.820Z,50.48
2017-11-12T01:05:38.818Z,46.40
2017-11-12T01:06:38.792Z,46.36
2017-11-12T01:07:38.782Z,47.99
2017-11-12T01:08:38.774Z,46.22
2017-11-12T01:09:38.761Z,44.94
2017-11-12T01:10:38.759Z,43.08
2017-11-12T01:11:38.733Z,46.42
2017-11-12T01:12:38.734Z,44.25
2017-11-12T01:13:38.733Z,45.77
2017-11-12T01:14:38.712Z,45.11
2017-11-12T01:15:38.720Z,41.22
2017-11-12T01:16:38.687Z,39.59
2017-11-12T01:17:38.680Z,43.02
2017-11-12T01:18:38.692Z,39.21
2017-11-12T01:19:38.661Z,39.30
2017-11-12T01:20:38.641Z,42.81
2017-11-12T01:21:38.631Z,42.96
2017-11-12T01:22:38.617Z,45.66
2017-11-12T01:23:38.603Z,41.45
2017-11-12T01:24:38.589Z,36.38
2017-11-12T01:25:38.585Z,43.28
2017-11-12T01:26:38.569Z,42.68
2017-11-12T01:27:38.555Z,40.12
2017-11-12T01:28:38.552Z,36.97
2017-11-12T01:29:38.561Z,34.51
2017-11-12T01:30:38.523Z,36.58
2017-11-12T01:31:38.520Z,38.24
2017-11-12T01:32:38.525Z,42.17
2017-11-12T01:33:38.511Z,38.06
2017-11-12T01:34:38.490Z,37.44
2017-11-12T01:35:38.474Z,42.94
2017-11-12T01:36:38.462Z,43.36
2017-11-12T01:37:38.445Z,41.97
2017-11-12T01:38:38.456Z,40.40
2017-11-12T01:39:38.447Z,38.08
2017-11-12T01:40:38.424Z,34.52
2017-11-12T01:41:38.408Z,35.71
2017-11-12T01:42:38.397Z,38.00
2017-11-12T01:43:38.385Z,37.60
2017-11-12T01:44:38.372Z,34.80
2017-11-12T01:45:38.367Z,38.91
2017-11-12T01:46:38.359Z,38.26
2017-11-12T01:47:38.364Z,41.55
2017-11-12T01:48:38.344Z,43.37
2017-11-12T01:49:38.322Z,39.86
2017-11-12T01:50:38.313Z,36.80
2017-11-12T01:51:38.295Z,37.74
2017-11-12T01:52:38.292Z,40.00
2017-11-12T01:53:38.265Z,42.40
2017-11-12T01:54:38.264Z,44.70
2017-11-12T01:55:38.244Z,44.10
2017-11-12T01:56:38.236Z,42.72
2017-11-12T01:57:38.232Z,39.16
2017-11-12T01:58:38.218Z,40.09
2017-11-12T01:59:38.205Z,37.91
2017-11-12T02:00:38.191Z,34.44
2017-11-12T02:01:38.178Z,40.16
2017-11-12T02:02:38.185Z,38.48
2017-11-12T02:03:38.159Z,36.78
2017-11-12T02:04:38.147Z,42.98
2017-11-12T02:05:38.131Z,39.58
2017-11-12T02:06:38.126Z,39.96
2017-11-12T02:07:38.119Z,38.84
2017-11-12T02:08:38.104Z,37.86
2017-11-12T02:09:38.108Z,37.58
2017-11-12T02:10:38.088Z,40.34
2017-11-12T02:11:38.074Z,36.06
2017-11-12T02:12:38.062Z,35.90
2017-11-12T02:13:38.048Z,39.74
2017-11-12T02:14:38.045Z,34.50
2017-11-12T02:15:38.037Z,35.58
2017-11-12T02:16:38.015Z,37.50
2017-11-12T02:17:38.035Z,35.72
2017-11-12T02:18:37.991Z,36.54
2017-11-12T02:19:37.981Z,37.75
2017-11-12T02:20:37.969Z,37.29
2017-11-12T02:21:37.957Z,35.84
2017-11-12T02:22:37.953Z,36.87
2017-11-12T02:23:37.943Z,39.70
2017-11-12T02:24:37.947Z,40.00
2017-11-12T02:25:37.922Z,41.79
2017-11-12T02:26:37.906Z,41.88
2017-11-12T02:27:37.900Z,45.28
2017-11-12T02:28:37.877Z,41.63
2017-11-12T02:29:37.872Z,42.62
2017-11-12T02:30:37.858Z,43.61
2017-11-12T02:31:37.851Z,42.10
2017-11-12T02:32:37.836Z,44.70
2017-11-12T02:33:37.829Z,43.74
2017-11-12T02:34:37.816Z,43.57
2017-11-12T02:35:37.800Z,45.69
2017-11-12T02:36:37.793Z,39.91
2017-11-12T02:37:37.775Z,39.10
2017-11-12T02:38:37.774Z,37.56
2017-11-12T02:39:37.758Z,38.56
2017-11-12T02:40:37.751Z,39.86
2017-11-12T02:41:37.755Z,35.49
2017-11-12T02:42:37.729Z,39.84
2017-11-12T02:43:37.725Z,46.08
2017-11-12T02:44:37.708Z,45.32
2017-11-12T02:45:37.694Z,39.36
2017-11-12T02:46:37.684Z,39.01
2017-11-12T02:47:37.673Z,36.68
2017-11-12T02:48:37.660Z,42.82
2017-11-12T02:49:37.646Z,41.40
2017-11-12T02:50:37.635Z,42.37
2017-11-12T02:51:37.623Z,45.58
2017-11-12T02:52:37.608Z,37.56
2017-11-12T02:53:37.602Z,33.97
2017-11-12T02:54:37.591Z,37.64
2017-11-12T02:55:37.587Z,31.91
2017-11-12T02:56:37.579Z,33.60
2017-11-12T02:57:37.554Z,35.06
2017-11-12T02:58:37.548Z,35.47
2017-11-12T02:59:37.542Z,36.32
2017-11-12T03:00:37.527Z,36.32
2017-11-12T03:01:37.514Z,33.02
2017-11-12T03:02:37.509Z,33.79
2017-11-12T03:03:37.493Z,43.51
2017-11-12T03:04:37.479Z,34.82
2017-11-12T03:05:37.467Z,37.36
2017-11-12T03:06:37.456Z,32.89
2017-11-12T03:07:37.446Z,32.93
2017-11-12T03:08:37.440Z,35.50
2017-11-12T03:09:37.425Z,34.74
2017-11-12T03:10:37.412Z,35.30
2017-11-12T03:11:37.405Z,34.38
2017-11-12T03:12:37.389Z,35.66
2017-11-12T03:13:37.369Z,31.88
2017-11-12T03:14:37.364Z,34.77
2017-11-12T03:15:37.361Z,36.22
2017-11-12T03:16:37.348Z,35.77
2017-11-12T03:17:37.335Z,36.62
2017-11-12T03:18:37.321Z,39.00
2017-11-12T03:19:37.311Z,34.82
2017-11-12T03:20:37.297Z,32.34
2017-11-12T03:21:37.291Z,33.48
2017-11-12T03:22:37.282Z,28.23
2017-11-12T03:23:37.269Z,31.66
2017-11-12T03:24:37.258Z,33.67
2017-11-12T03:25:37.244Z,31.70
2017-11-12T03:26:37.244Z,30.36
2017-11-12T03:27:37.223Z,29.01
2017-11-12T03:28:37.207Z,33.07
2017-11-12T03:29:37.199Z,30.95
2017-11-12T03:30:37.196Z,32.51
2017-11-12T03:31:37.176Z,31.50
2017-11-12T03:32:37.163Z,30.61
2017-11-12T03:33:37.152Z,30.21
2017-11-12T03:34:37.147Z,29.86
2017-11-12T03:35:37.148Z,31.15
2017-11-12T03:36:37.123Z,29.79
2017-11-12T03:37:37.108Z,29.88
2017-11-12T03:38:37.108Z,31.00
2017-11-12T03:39:37.094Z,34.28
2017-11-12T03:40:37.075Z,30.66
2017-11-12T03:41:37.074Z,26.78
2017-11-12T03:42:37.054Z,27.91
2017-11-12T03:43:37.047Z,26.50
2017-11-12T03:44:37.030Z,28.89
2017-11-12T03:45:37.021Z,30.99
2017-11-12T03:46:37.004Z,31.45
2017-11-12T03:47:36.998Z,29.67
2017-11-12T03:48:36.980Z,29.48
2017-11-12T03:49:36.966Z,29.22
2017-11-12T03:50:36.965Z,28.56
2017-11-12T03:51:36.953Z,28.88
2017-11-12T03:52:36.954Z,28.72
2017-11-12T03:53:36.937Z,26.45
2017-11-12T03:54:36.927Z,27.61
2017-11-12T03:55:36.925Z,28.11
2017-11-12T03:56:36.896Z,28.09
2017-11-12T03:57:36.887Z,29.11
2017-11-12T03:58:36.875Z,29.46
2017-11-12T03:59:36.865Z,31.30
2017-11-12T04:00:36.852Z,29.73
2017-11-12T04:01:36.839Z,28.31
2017-11-12T04:02:36.830Z,25.18
2017-11-12T04:03:36.815Z,28.70
2017-11-12T04:04:36.803Z,29.80
2017-11-12T04:05:36.792Z,30.89
2017-11-12T04:06:36.785Z,27.88
2017-11-12T04:07:36.773Z,28.93
2017-11-12T04:08:36.763Z,28.70
2017-11-12T04:09:36.751Z,30.24
2017-11-12T04:10:36.747Z,28.77
2017-11-12T04:11:36.732Z,29.38
2017-11-12T04:12:36.721Z,27.22
2017-11-12T04:13:36.709Z,28.48
2017-11-12T04:14:36.697Z,28.19
2017-11-12T04:15:36.708Z,29.30
2017-11-12T04:16:36.676Z,26.07
2017-11-12T04:17:36.666Z,27.54
2017-11-12T04:18:36.650Z,30.58
2017-11-12T04:19:36.643Z,28.42
2017-11-12T04:20:36.627Z,26.55
2017-11-12T04:21:36.616Z,28.42
2017-11-12T04:22:36.625Z,29.08
2017-11-12T04:23:36.605Z,27.38
2017-11-12T04:24:36.588Z,25.40
2017-11-12T04:25:36.577Z,29.31
2017-11-12T04:26:36.575Z,29.86
2017-11-12T04:27:36.558Z,25.90
2017-11-12T04:28:36.546Z,28.13
2017-11-12T04:29:36.542Z,26.89
2017-11-12T04:30:36.530Z,29.59
2017-11-12T04:31:36.519Z,28.64
2017-11-12T04:32:36.496Z,27.78
2017-11-12T04:33:36.493Z,27.54
2017-11-12T04:34:36.483Z,30.40
2017-11-12T04:35:36.468Z,27.12
2017-11-12T04:36:36.449Z,27.70
2017-11-12T04:37:36.439Z,28.75
2017-11-12T04:38:36.437Z,32.01
2017-11-12T04:39:36.418Z,28.37
2017-11-12T04:40:36.409Z,25.42
2017-11-12T04:41:36.396Z,27.39
2017-11-12T04:42:36.388Z,26.81
2017-11-12T04:43:36.381Z,26.32
2017-11-12T04:44:36.364Z,25.43
2017-11-12T04:45:36.365Z,25.24
2017-11-12T04:46:36.344Z,25.82
2017-11-12T04:47:36.334Z,28.08
2017-11-12T04:48:36.309Z,33.15
2017-11-12T04:49:36.309Z,29.48
2017-11-12T04:50:36.296Z,31.28
2017-11-12T04:51:36.287Z,27.55
2017-11-12T04:52:36.271Z,26.65
2017-11-12T04:53:36.263Z,29.66
2017-11-12T04:54:36.251Z,29.06
2017-11-12T04:55:36.233Z,27.71
2017-11-12T04:56:36.233Z,25.98
2017-11-12T04:57:36.219Z,25.67
2017-11-12T04:58:36.210Z,29.89
2017-11-12T04:59:36.201Z,28.10
2017-11-12T05:00:36.184Z,28.96
2017-11-12T05:01:36.186Z,29.84
2017-11-12T05:02:36.165Z,25.44
2017-11-12T05:03:36.155Z,29.95
2017-11-12T05:04:36.137Z,25.59
2017-11-12T05:05:36.127Z,26.31
2017-11-12T05:06:36.110Z,26.04
2017-11-12T05:07:36.104Z,26.18
2017-11-12T05:08:36.096Z,26.18
2017-11-12T05:09:36.082Z,31.46
2017-11-12T05:10:36.067Z,30.39
2017-11-12T05:11:36.061Z,26.50
2017-11-12T05:12:36.050Z,27.26
2017-11-12T05:13:36.037Z,23.94
2017-11-12T05:14:36.034Z,23.49
2017-11-12T05:15:36.017Z,24.44
2017-11-12T05:16:35.998Z,26.99
2017-11-12T05:17:35.997Z,26.89
2017-11-12T05:18:35.984Z,26.71
2017-11-12T05:19:35.969Z,23.91
2017-11-12T05:20:35.976Z,26.51
2017-11-12T05:21:35.949Z,25.02
2017-11-12T05:22:35.944Z,26.59
2017-11-12T05:23:35.929Z,25.16
2017-11-12T05:24:35.915Z,26.20
2017-11-12T05:25:35.909Z,24.76
2017-11-12T05:26:35.890Z,25.67
2017-11-12T05:27:35.881Z,26.24
2017-11-12T05:28:35.869Z,23.56
2017-11-12T05:29:35.857Z,23.28
2017-11-12T05:30:35.856Z,24.12
2017-11-12T05:31:35.830Z,24.59
2017-11-12T05:32:35.822Z,24.89
2017-11-12T05:33:35.813Z,24.35
2017-11-12T05:34:35.812Z,25.14
2017-11-12T05:35:35.792Z,28.14
2017-11-12T05:36:35.782Z,25.29
2017-11-12T05:37:35.772Z,25.12
2017-11-12T05:38:35.757Z,21.12
2017-11-12T05:39:35.749Z,23.52
2017-11-12T05:40:35.739Z,24.03
2017-11-12T05:41:35.727Z,21.58
2017-11-12T05:42:35.716Z,24.03
2017-11-12T05:43:35.703Z,25.55
2017-11-12T05:44:35.701Z,22.05
2017-11-12T05:45:35.677Z,24.57
2017-11-12T05:46:35.676Z,25.76
2017-11-12T05:47:35.649Z,22.66
2017-11-12T05:48:35.645Z,22.98
2017-11-12T05:49:35.638Z,22.41
2017-11-12T05:50:35.624Z,24.27
2017-11-12T05:51:35.616Z,25.00
2017-11-12T05:52:35.603Z,24.84
2017-11-12T05:53:35.598Z,29.43
2017-11-12T05:54:35.584Z,25.66
2017-11-12T05:55:35.576Z,23.03
2017-11-12T05:56:35.563Z,24.08
2017-11-12T05:57:35.547Z,22.71
2017-11-12T05:58:35.536Z,29.08
2017-11-12T05:59:35.525Z,25.02
2017-11-12T06:00:35.514Z,23.50
2017-11-12T06:01:35.492Z,21.60
2017-11-12T06:02:35.488Z,24.01
2017-11-12T06:03:35.483Z,22.76
2017-11-12T06:04:35.471Z,25.02
2017-11-12T06:05:35.454Z,26.51
2017-11-12T06:06:35.444Z,24.16
2017-11-12T06:07:35.439Z,26.64
2017-11-12T06:08:35.425Z,26.18
2017-11-12T06:09:35.426Z,24.68
2017-11-12T06:10:35.398Z,27.44
2017-11-12T06:11:35.406Z,24.62
2017-11-12T06:12:35.395Z,25.95
2017-11-12T06:13:35.380Z,29.22
2017-11-12T06:14:35.358Z,26.58
2017-11-12T06:15:35.353Z,26.85
2017-11-12T06:16:35.337Z,26.80
2017-11-12T06:17:35.327Z,27.46
2017-11-12T06:18:35.319Z,27.63
2017-11-12T06:19:35.315Z,28.25
2017-11-12T06:20:35.305Z,26.04
2017-11-12T06:21:35.277Z,25.54
2017-11-12T06:22:35.270Z,27.55
2017-11-12T06:23:35.262Z,27.28
2017-11-12T06:24:35.236Z,24.32
2017-11-12T06:25:35.242Z,25.51
2017-11-12T06:26:35.233Z,27.48
2017-11-12T06:27:35.219Z,29.06
2017-11-12T06:28:35.194Z,27.56
2017-11-12T06:29:35.192Z,26.92
2017-11-12T06:30:35.186Z,26.27
2017-11-12T06:31:35.214Z,25.50
2017-11-12T06:32:35.167Z,27.13
2017-11-12T06:33:35.146Z,30.57
2017-11-12T06:34:35.136Z,26.57
2017-11-12T06:35:35.122Z,27.56
2017-11-12T06:36:35.117Z,30.39
2017-11-12T06:37:35.102Z,32.02
2017-11-12T06:38:35.105Z,26.96
2017-11-12T06:39:35.080Z,25.89
2017-11-12T06:40:35.079Z,26.02
2017-11-12T06:41:35.069Z,24.21
2017-11-12T06:42:35.053Z,28.84
2017-11-12T06:43:35.043Z,28.38
2017-11-12T06:44:35.028Z,29.23
2017-11-12T06:45:35.013Z,26.52
2017-11-12T06:46:35.004Z,26.31
2017-11-12T06:47:34.992Z,24.91
2017-11-12T06:48:34.987Z,30.75
2017-11-12T06:49:34.978Z,30.84
2017-11-12T06:50:34.961Z,31.94
2017-11-12T06:51:34.949Z,29.61
2017-11-12T06:52:34.929Z,30.90
2017-11-12T06:53:35.474Z,28.40
2017-11-12T06:54:34.935Z,32.01
2017-11-12T06:55:34.909Z,31.48
2017-11-12T06:56:34.885Z,28.00
2017-11-12T06:57:34.879Z,27.49
2017-11-12T06:58:34.871Z,28.30
2017-11-12T06:59:34.852Z,28.94
2017-11-12T07:00:34.842Z,28.62
2017-11-12T07:01:34.835Z,29.18
2017-11-12T07:02:34.826Z,28.78
2017-11-12T07:03:34.809Z,28.30
2017-11-12T07:04:34.813Z,28.40
2017-11-12T07:05:34.798Z,25.78
2017-11-12T07:06:34.782Z,27.12
2017-11-12T07:07:34.771Z,28.27
2017-11-12T07:08:34.758Z,31.29
2017-11-12T07:09:35.475Z,27.52
2017-11-12T07:10:34.736Z,27.41
2017-11-12T07:11:34.725Z,29.84
2017-11-12T07:12:34.720Z,25.76
2017-11-12T07:13:34.710Z,31.56
2017-11-12T07:14:34.692Z,28.91
2017-11-12T07:15:34.673Z,30.14
2017-11-12T07:16:34.678Z,28.03
2017-11-12T07:17:34.653Z,25.89
2017-11-12T07:18:34.652Z,29.00
2017-11-12T07:19:34.644Z,28.30
2017-11-12T07:20:35.467Z,27.08
2017-11-12T07:21:34.625Z,27.84
2017-11-12T07:22:34.607Z,27.31
2017-11-12T07:23:34.603Z,23.24
2017-11-12T07:24:34.584Z,26.49
2017-11-12T07:25:34.570Z,24.86
2017-11-12T07:26:34.574Z,26.52
2017-11-12T07:27:34.554Z,28.68
2017-11-12T07:28:34.539Z,29.04
2017-11-12T07:29:34.536Z,27.74
2017-11-12T07:30:34.520Z,27.51
2017-11-12T07:31:34.510Z,28.80
2017-11-12T07:32:34.490Z,34.96
2017-11-12T07:33:34.485Z,24.96
2017-11-12T07:34:34.484Z,26.62
2017-11-12T07:35:34.470Z,29.72
2017-11-12T07:36:34.442Z,25.90
2017-11-12T07:37:34.439Z,24.51
2017-11-12T07:38:34.425Z,23.75
2017-11-12T07:39:34.426Z,25.53
2017-11-12T07:40:34.417Z,26.75
2017-11-12T07:41:34.401Z,25.78
2017-11-12T07:42:34.383Z,23.63
2017-11-12T07:43:34.370Z,25.79
2017-11-12T07:44:34.362Z,25.28
2017-11-12T07:45:34.359Z,29.82
2017-11-12T07:46:34.341Z,28.26
2017-11-12T07:47:34.336Z,25.76
2017-11-12T07:48:34.323Z,25.86
2017-11-12T07:49:34.312Z,28.76
2017-11-12T07:50:34.314Z,26.52
2017-11-12T07:51:34.293Z,30.30
2017-11-12T07:52:34.280Z,27.80
2017-11-12T07:53:34.273Z,27.53
2017-11-12T07:54:34.259Z,32.60
2017-11-12T07:55:34.241Z,29.02
2017-11-12T07:56:34.232Z,28.90
2017-11-12T07:57:34.221Z,25.91
2017-11-12T07:58:34.216Z,30.31
2017-11-12T07:59:34.211Z,26.82
2017-11-12T08:00:34.192Z,27.35
2017-11-12T08:01:34.187Z,25.61
2017-11-12T08:02:34.177Z,26.60
2017-11-12T08:03:34.162Z,25.14
2017-11-12T08:04:34.151Z,27.16
2017-11-12T08:05:34.149Z,26.44
2017-11-12T08:06:34.136Z,31.60
2017-11-12T08:07:34.119Z,33.68
2017-11-12T08:08:34.104Z,29.19
2017-11-12T08:09:34.103Z,31.03
2017-11-12T08:10:34.083Z,30.83
2017-11-12T08:11:34.073Z,26.32
2017-11-12T08:12:34.060Z,25.40
2017-11-12T08:13:34.052Z,40.86
2017-11-12T08:14:34.050Z,38.69
2017-11-12T08:15:34.034Z,31.44
2017-11-12T08:16:34.024Z,30.89
2017-11-12T08:17:34.012Z,26.93
2017-11-12T08:18:33.997Z,23.39
2017-11-12T08:19:33.990Z,23.67
2017-11-12T08:20:33.976Z,24.27
2017-11-12T08:21:33.983Z,23.50
2017-11-12T08:22:33.966Z,23.00
2017-11-12T08:23:33.970Z,22.90
2017-11-12T08:24:33.927Z,24.26
2017-11-12T08:25:33.922Z,23.77
2017-11-12T08:26:33.914Z,24.34
2017-11-12T08:27:33.905Z,22.89
2017-11-12T08:28:33.894Z,20.04
2017-11-12T08:29:33.893Z,19.75
2017-11-12T08:30:33.881Z,25.62
2017-11-12T08:31:33.865Z,23.48
2017-11-12T08:32:33.870Z,29.48
2017-11-12T08:33:33.839Z,27.91
2017-11-12T08:34:33.835Z,28.02
2017-11-12T08:35:33.818Z,24.04
2017-11-12T08:36:33.820Z,22.00
2017-11-12T08:37:33.802Z,22.52
2017-11-12T08:38:33.797Z,20.76
2017-11-12T08:39:33.787Z,17.94
2017-11-12T08:40:33.773Z,19.04
2017-11-12T08:41:33.757Z,18.09
2017-11-12T08:42:33.741Z,19.74
2017-11-12T08:43:33.740Z,22.18
2017-11-12T08:44:33.735Z,20.37
2017-11-12T08:45:33.719Z,23.80
2017-11-12T08:46:33.707Z,22.58
2017-11-12T08:47:33.694Z,21.93
2017-11-12T08:48:33.693Z,22.00
2017-11-12T08:49:33.679Z,19.44
2017-11-12T08:50:33.671Z,23.47
2017-11-12T08:51:33.655Z,21.42
2017-11-12T08:52:33.645Z,20.15
2017-11-12T08:53:33.630Z,22.41
2017-11-12T08:54:33.626Z,21.28
2017-11-12T08:55:33.611Z,22.64
2017-11-12T08:56:33.601Z,19.14
2017-11-12T08:57:33.613Z,19.66
2017-11-12T08:58:33.583Z,21.79
2017-11-12T08:59:34.490Z,19.98
2017-11-12T09:00:33.566Z,23.81
2017-11-12T09:01:33.545Z,23.13
2017-11-12T09:02:33.554Z,21.72
2017-11-12T09:03:33.638Z,23.69
2017-11-12T09:04:33.516Z,23.80
2017-11-12T09:05:33.508Z,20.96
2017-11-12T09:06:33.506Z,23.24
2017-11-12T09:07:33.493Z,20.16
2017-11-12T09:08:33.473Z,20.74
2017-11-12T09:09:33.655Z,22.80
2017-11-12T09:10:33.457Z,23.16
2017-11-12T09:11:33.451Z,25.55
2017-11-12T09:12:33.439Z,21.19
2017-11-12T09:13:33.421Z,22.16
2017-11-12T09:14:33.416Z,22.28
2017-11-12T09:15:33.410Z,22.30
2017-11-12T09:16:33.428Z,24.27
2017-11-12T09:17:33.380Z,25.66
2017-11-12T09:18:33.379Z,26.72
2017-11-12T09:19:33.361Z,24.69
2017-11-12T09:20:33.361Z,24.16
2017-11-12T09:21:33.345Z,25.42
2017-11-12T09:22:33.340Z,21.96
2017-11-12T09:23:33.329Z,22.96
2017-11-12T09:24:33.334Z,25.22
2017-11-12T09:25:33.318Z,23.94
2017-11-12T09:26:33.307Z,23.83
2017-11-12T09:27:33.290Z,24.79
2017-11-12T09:28:33.278Z,22.41
2017-11-12T09:29:33.258Z,24.54
2017-11-12T09:30:33.250Z,25.99
2017-11-12T09:31:33.250Z,25.03
2017-11-12T09:32:33.228Z,22.76
2017-11-12T09:33:33.228Z,21.62
2017-11-12T09:34:33.217Z,20.92
2017-11-12T09:35:33.233Z,21.87
2017-11-12T09:36:33.186Z,23.51
2017-11-12T09:37:33.182Z,21.98
2017-11-12T09:38:33.172Z,23.79
2017-11-12T09:39:33.157Z,22.20
2017-11-12T09:40:33.143Z,22.10
2017-11-12T09:41:33.151Z,20.52
2017-11-12T09:42:33.125Z,19.73
2017-11-12T09:43:33.119Z,18.83
2017-11-12T09:44:33.113Z,19.98
2017-11-12T09:45:33.110Z,18.82
2017-11-12T09:46:33.098Z,20.37
2017-11-12T09:47:33.083Z,16.80
2017-11-12T09:48:33.081Z,15.66
2017-11-12T09:49:33.067Z,15.32
2017-11-12T09:50:33.068Z,15.60
2017-11-12T09:51:33.047Z,15.37
2017-11-12T09:52:33.026Z,15.54
2017-11-12T09:53:33.018Z,16.50
2017-11-12T09:54:33.016Z,15.44
2017-11-12T09:55:33.010Z,13.41
2017-11-12T09:56:32.999Z,17.30
2017-11-12T09:57:32.988Z,14.16
2017-11-12T09:58:32.976Z,14.76
2017-11-12T09:59:32.963Z,14.34
2017-11-12T10:00:32.962Z,14.26
2017-11-12T10:00:44.952Z,0.56
2017-11-12T10:02:33.526Z,13.90
2017-11-12T10:03:32.941Z,12.72
2017-11-12T10:04:32.911Z,11.99
2017-11-12T10:05:33.518Z,11.83
2017-11-12T10:06:32.903Z,13.35
2017-11-12T10:07:32.890Z,15.41
2017-11-12T10:08:32.901Z,12.33
2017-11-12T10:09:32.864Z,11.23
2017-11-12T10:10:32.860Z,11.86
2017-11-12T10:11:32.885Z,11.69
2017-11-12T10:12:32.850Z,11.60
2017-11-12T10:13:32.835Z,13.25
2017-11-12T10:14:32.828Z,15.04
2017-11-12T10:15:32.817Z,12.10
2017-11-12T10:16:32.809Z,11.33
2017-11-12T10:17:32.803Z,12.98
2017-11-12T10:18:32.799Z,11.45
2017-11-12T10:19:32.784Z,9.82
2017-11-12T10:20:32.776Z,10.11
2017-11-12T10:21:33.526Z,10.64
2017-11-12T10:22:32.759Z,12.00
2017-11-12T10:23:32.748Z,10.95
2017-11-12T10:24:32.728Z,11.26
2017-11-12T10:25:32.728Z,10.13
2017-11-12T10:26:32.713Z,11.94
2017-11-12T10:27:32.711Z,10.86
2017-11-12T10:28:32.697Z,10.80
2017-11-12T10:29:32.723Z,11.30
2017-11-12T10:30:32.683Z,10.37
2017-11-12T10:31:32.670Z,11.34
2017-11-12T10:32:32.670Z,9.79
2017-11-12T10:33:32.656Z,12.41
2017-11-12T10:34:32.659Z,11.40
2017-11-12T10:35:32.646Z,9.62
2017-11-12T10:36:32.624Z,10.91
2017-11-12T10:37:32.620Z,10.78
2017-11-12T10:38:32.647Z,9.88
2017-11-12T10:39:32.599Z,11.98
2017-11-12T10:40:32.599Z,9.14
2017-11-12T10:41:32.591Z,10.28
2017-11-12T10:42:32.577Z,9.86
2017-11-12T10:43:32.568Z,10.40
2017-11-12T10:44:33.895Z,9.72
2017-11-12T10:45:32.545Z,9.86
2017-11-12T10:46:32.539Z,12.51
2017-11-12T10:47:32.530Z,10.64
2017-11-12T10:48:32.513Z,11.26
2017-11-12T10:49:32.501Z,10.02
2017-11-12T10:50:32.499Z,10.78
2017-11-12T10:51:32.507Z,8.48
2017-11-12T10:52:32.477Z,10.49
2017-11-12T10:53:32.463Z,10.51
2017-11-12T10:54:32.467Z,9.36
2017-11-12T10:55:32.451Z,10.25
2017-11-12T10:56:32.447Z,11.93
2017-11-12T10:57:32.430Z,8.58
2017-11-12T10:58:32.420Z,11.48
2017-11-12T10:59:32.417Z,10.11
2017-11-12T11:00:32.437Z,8.95
2017-11-12T11:01:32.400Z,9.63
2017-11-12T11:02:32.391Z,12.40
2017-11-12T11:03:32.388Z,11.86
2017-11-12T11:04:32.365Z,10.85
2017-11-12T11:05:32.365Z,9.52
2017-11-12T11:06:32.355Z,9.86
2017-11-12T11:07:32.329Z,12.32
2017-11-12T11:08:32.354Z,12.32
2017-11-12T11:09:32.318Z,9.85
2017-11-12T11:10:32.316Z,11.09
2017-11-12T11:11:32.307Z,11.61
2017-11-12T11:12:32.293Z,11.82
2017-11-12T11:13:32.288Z,11.86
2017-11-12T11:14:32.278Z,10.66
2017-11-12T11:15:32.406Z,12.10
2017-11-12T11:16:32.252Z,11.47
2017-11-12T11:17:32.248Z,13.02
2017-11-12T11:18:32.235Z,9.42
2017-11-12T11:19:32.243Z,9.90
2017-11-12T11:20:32.213Z,11.60
2017-11-12T11:21:32.205Z,11.18
2017-11-12T11:22:32.190Z,11.56
2017-11-12T11:23:32.185Z,9.80
2017-11-12T11:24:32.188Z,10.68
2017-11-12T11:25:32.160Z,9.94
2017-11-12T11:26:32.156Z,8.25
2017-11-12T11:27:32.150Z,9.57
2017-11-12T11:28:32.137Z,10.85
2017-11-12T11:29:32.128Z,13.69
2017-11-12T11:30:32.120Z,12.99
2017-11-12T11:31:32.124Z,11.12
2017-11-12T11:32:32.100Z,9.43
2017-11-12T11:33:32.092Z,8.94
2017-11-12T11:34:32.100Z,9.04
2017-11-12T11:35:32.088Z,11.21
2017-11-12T11:36:32.058Z,9.13
2017-11-12T11:37:32.052Z,9.03
2017-11-12T11:38:32.040Z,10.27
2017-11-12T11:39:32.032Z,11.24
2017-11-12T11:40:32.037Z,11.53
2017-11-12T11:41:32.015Z,11.07
2017-11-12T11:42:34.556Z,12.05
2017-11-12T11:43:31.990Z,12.77
2017-11-12T11:44:31.989Z,10.28
2017-11-12T11:45:31.979Z,14.26
2017-11-12T11:46:31.968Z,15.18
2017-11-12T11:47:31.959Z,12.56
2017-11-12T11:48:31.947Z,11.26
2017-11-12T11:49:31.938Z,12.93
2017-11-12T11:50:31.931Z,14.40
2017-11-12T11:51:31.917Z,13.40
2017-11-12T11:52:31.917Z,12.33
2017-11-12T11:53:31.907Z,12.05
2017-11-12T11:54:31.898Z,12.88
2017-11-12T11:55:31.946Z,15.38
2017-11-12T11:56:31.873Z,17.71
2017-11-12T11:57:31.878Z,12.84
2017-11-12T11:58:31.860Z,12.51
2017-11-12T11:59:31.853Z,12.77
2017-11-12T12:00:31.838Z,12.57
2017-11-12T12:01:31.837Z,11.30
2017-11-12T12:02:31.815Z,13.17
2017-11-12T12:03:31.804Z,12.01
2017-11-12T12:04:31.797Z,11.76
2017-11-12T12:05:31.795Z,13.44
2017-11-12T12:06:31.789Z,11.10
2017-11-12T12:07:31.774Z,13.95
2017-11-12T12:08:31.767Z,12.38
2017-11-12T12:09:31.760Z,10.46
2017-11-12T12:10:31.758Z,11.39
2017-11-12T12:11:31.749Z,10.32
2017-11-12T12:12:31.730Z,11.51
2017-11-12T12:13:31.725Z,9.35
2017-11-12T12:14:32.573Z,9.77
2017-11-12T12:15:32.569Z,9.12
2017-11-12T12:16:31.681Z,9.80
2017-11-12T12:17:31.679Z,9.19
2017-11-12T12:18:31.685Z,9.92
2017-11-12T12:19:31.669Z,8.87
2017-11-12T12:20:31.661Z,9.06
2017-11-12T12:21:31.646Z,10.63
2017-11-12T12:22:31.650Z,10.19
2017-11-12T12:23:31.631Z,8.71
2017-11-12T12:24:31.627Z,10.31
2017-11-12T12:25:31.607Z,11.27
2017-11-12T12:26:31.603Z,8.81
2017-11-12T12:27:31.602Z,9.52
2017-11-12T12:28:31.583Z,10.80
2017-11-12T12:29:31.568Z,8.89
2017-11-12T12:30:31.561Z,9.90
2017-11-12T12:31:31.560Z,10.07
2017-11-12T12:32:31.544Z,8.90
2017-11-12T12:33:31.537Z,8.47
2017-11-12T12:34:31.530Z,8.76
2017-11-12T12:35:31.520Z,10.04
2017-11-12T12:36:31.512Z,9.44
2017-11-12T12:37:31.508Z,8.34
2017-11-12T12:38:31.496Z,8.17
2017-11-12T12:39:31.481Z,10.19
2017-11-12T12:40:31.482Z,8.86
2017-11-12T12:41:31.472Z,9.71
2017-11-12T12:42:31.463Z,8.72
2017-11-12T12:43:31.457Z,8.28
2017-11-12T12:44:31.440Z,9.17
2017-11-12T12:45:31.438Z,9.57
2017-11-12T12:46:31.429Z,8.32
2017-11-12T12:47:31.417Z,7.52
2017-11-12T12:48:31.403Z,6.84
2017-11-12T12:49:31.398Z,8.65
2017-11-12T12:50:31.399Z,8.47
2017-11-12T12:51:31.380Z,9.56
2017-11-12T12:52:31.380Z,9.64
2017-11-12T12:53:31.364Z,9.39
2017-11-12T12:54:31.358Z,8.42